Time;durP1;ratioP1;P1;durP2;ratioP2;P2;SDS_P1;SDS_P2;PMS_P1;PMS_P2;Temp;Humidity;BMP_temperature;BMP_pressure;BME280_temperature;BME280_humidity;BME280_pressure;Samples;Min_cycle;Max_cycle;Signal;HPM_P1;HPM_P2
2021/03/26 00:05:09;;;;;;;15.23;7.88;;;;;;;5.88;89.09;100876.72;20913882;28;20139;-69
2021/03/26 00:15:10;;;;;;;17.93;9.07;;;;;;;5.77;90.35;100878.72;20910059;28;20049;-69
2021/03/26 00:25:12;;;;;;;17.33;9.10;;;;;;;5.71;90.72;100873.66;20909509;28;20056;-69
2021/03/26 00:35:15;;;;;;;18.67;8.95;;;;;;;5.57;91.24;100866.25;20906078;28;20451;-69
2021/03/26 00:45:21;;;;;;;17.25;8.05;;;;;;;5.36;91.66;100861.63;20907966;28;20041;-70
2021/03/26 00:55:21;;;;;;;18.13;8.77;;;;;;;5.26;93.34;100872.25;20906539;28;20045;-69
2021/03/26 01:05:30;;;;;;;15.23;8.15;;;;;;;5.16;93.66;100872.50;20905431;28;20049;-69
2021/03/26 01:15:32;;;;;;;18.85;9.45;;;;;;;5.09;93.88;100859.69;20944376;28;20044;-70
2021/03/26 01:25:39;;;;;;;17.23;9.60;;;;;;;5.01;94.18;100854.72;20987673;28;20098;-69
2021/03/26 01:35:41;;;;;;;23.05;10.95;;;;;;;4.89;94.86;100848.94;20975726;28;20396;-69
2021/03/26 01:45:42;;;;;;;27.10;12.05;;;;;;;4.79;96.19;100843.13;20903444;28;20040;-70
2021/03/26 01:55:46;;;;;;;26.08;11.90;;;;;;;4.73;96.95;100831.16;20902606;28;20115;-69
2021/03/26 02:05:50;;;;;;;20.73;10.32;;;;;;;4.58;97.02;100812.50;20902073;28;20102;-70
2021/03/26 02:15:52;;;;;;;18.75;9.07;;;;;;;4.45;97.15;100809.34;20901396;28;20060;-70
2021/03/26 02:25:56;;;;;;;23.58;11.05;;;;;;;4.49;98.54;100811.00;20912388;28;20049;-70
2021/03/26 02:36:13;;;;;;;24.30;12.10;;;;;;;4.37;99.44;100811.25;20916479;28;20052;-70
2021/03/26 02:46:16;;;;;;;24.58;12.48;;;;;;;4.25;99.83;100812.41;20916969;28;20056;-71
2021/03/26 02:56:25;;;;;;;21.90;12.35;;;;;;;4.21;99.38;100812.50;20915432;28;20077;-69
2021/03/26 03:06:36;;;;;;;22.52;12.38;;;;;;;4.17;100.00;100821.19;20914514;28;20045;-69
2021/03/26 03:16:41;;;;;;;28.13;13.63;;;;;;;4.21;100.00;100818.53;20914254;28;20125;-69
2021/03/26 03:26:45;;;;;;;26.10;13.43;;;;;;;4.16;100.00;100807.44;20913701;28;20098;-69
2021/03/26 03:37:10;;;;;;;23.42;12.50;;;;;;;4.05;100.00;100803.34;20911705;28;20049;-70
2021/03/26 03:47:14;;;;;;;30.20;14.00;;;;;;;3.96;100.00;100791.47;20912176;28;20060;-69
2021/03/26 03:57:22;;;;;;;23.38;10.48;;;;;;;3.74;99.32;100795.34;20912339;28;20092;-70
2021/03/26 04:07:33;;;;;;;28.67;11.77;;;;;;;3.69;100.00;100787.69;20910989;28;20041;-69
2021/03/26 04:17:52;;;;;;;21.67;12.13;;;;;;;3.60;100.00;100781.84;20910855;28;20091;-69
2021/03/26 04:28:03;;;;;;;25.25;12.70;;;;;;;3.49;100.00;100773.44;20909639;28;20419;-70
2021/03/26 04:38:20;;;;;;;24.52;12.57;;;;;;;3.35;100.00;100771.13;20909198;28;20099;-70
2021/03/26 04:48:37;;;;;;;26.75;12.68;;;;;;;3.22;100.00;100775.66;20908256;28;20094;-70
2021/03/26 04:58:42;;;;;;;29.83;13.23;;;;;;;3.11;100.00;100769.81;20906070;28;20041;-69
2021/03/26 05:08:48;;;;;;;18.87;10.93;;;;;;;2.86;99.98;100764.22;20906081;28;20041;-69
2021/03/26 05:18:57;;;;;;;20.40;10.68;;;;;;;2.84;100.00;100784.09;20907053;28;20412;-69
2021/03/26 05:29:00;;;;;;;25.63;11.57;;;;;;;2.88;99.96;100787.47;20905910;28;20052;-69
2021/03/26 05:39:14;;;;;;;25.08;12.88;;;;;;;2.98;99.30;100791.59;20902507;28;20041;-70
2021/03/26 05:49:26;;;;;;;28.47;12.70;;;;;;;3.05;98.21;100789.78;20902650;28;20052;-70
2021/03/26 05:59:46;;;;;;;28.13;12.02;;;;;;;3.21;97.68;100792.03;20903865;28;20099;-69
2021/03/26 06:10:15;;;;;;;28.05;14.18;;;;;;;3.40;97.25;100793.41;20900827;28;20496;-69
2021/03/26 06:20:39;;;;;;;32.05;15.07;;;;;;;3.56;98.05;100799.13;20902366;28;20558;-69
2021/03/26 06:31:05;;;;;;;33.70;17.98;;;;;;;3.80;97.40;100801.28;20869633;28;20094;-69
2021/03/26 06:42:03;;;;;;;34.22;16.85;;;;;;;4.03;97.70;100795.59;20901375;28;20081;-69
2021/03/26 06:52:12;;;;;;;34.83;17.33;;;;;;;4.39;96.81;100796.53;20905808;28;20087;-69
2021/03/26 07:02:44;;;;;;;32.72;16.88;;;;;;;5.02;96.86;100796.75;20912098;28;20094;-69
2021/03/26 07:13:16;;;;;;;29.85;15.00;;;;;;;5.67;96.23;100786.34;20912150;28;20045;-69
2021/03/26 07:24:07;;;;;;;28.33;15.30;;;;;;;5.94;96.03;100788.19;20916265;28;20095;-68
2021/03/26 07:34:24;;;;;;;26.13;14.57;;;;;;;6.17;95.65;100786.66;20869101;28;20053;-68
2021/03/26 07:44:34;;;;;;;29.10;15.00;;;;;;;6.53;94.52;100795.94;20925506;28;20046;-67
2021/03/26 07:54:54;;;;;;;25.42;15.13;;;;;;;6.89;93.10;100791.31;20911047;28;20033;-68
2021/03/26 08:05:05;;;;;;;31.83;17.00;;;;;;;7.20;91.05;100793.75;20902339;28;20468;-68
2021/03/26 08:15:23;;;;;;;29.42;15.32;;;;;;;7.55;90.59;100806.41;20900933;28;20070;-68
2021/03/26 08:25:35;;;;;;;26.50;15.93;;;;;;;8.12;88.03;100795.59;20917065;28;20444;-70
2021/03/26 08:36:03;;;;;;;25.63;13.50;;;;;;;8.67;83.42;100790.03;20938691;28;20041;-71
2021/03/26 08:46:22;;;;;;;24.70;14.05;;;;;;;9.11;81.87;100788.19;20910790;28;20041;-70
2021/03/26 08:56:42;;;;;;;25.80;13.65;;;;;;;9.41;80.40;100777.28;20945201;28;20045;-70
2021/03/26 09:06:53;;;;;;;21.92;12.80;;;;;;;9.80;79.22;100776.47;20912964;28;20547;-70
2021/03/26 09:17:00;;;;;;;23.83;13.43;;;;;;;10.18;76.73;100774.72;20872874;28;20103;-70
2021/03/26 09:27:13;;;;;;;22.10;13.10;;;;;;;10.74;74.00;100769.41;20889995;28;20051;-71
2021/03/26 09:37:52;;;;;;;24.13;13.27;;;;;;;11.10;72.28;100759.72;20946976;28;20125;-71
2021/03/26 09:48:14;;;;;;;20.92;12.88;;;;;;;11.67;69.75;100738.44;20936822;28;20106;-71
2021/03/26 09:58:42;;;;;;;18.45;11.45;;;;;;;12.17;66.07;100725.22;20931429;28;20048;-71
2021/03/26 10:19:39;;;;;;;23.45;12.68;;;;;;;12.81;63.20;100702.22;20858503;28;20047;-71
2021/03/26 10:29:54;;;;;;;22.33;12.57;;;;;;;12.94;61.53;100688.38;20944603;28;20078;-71
2021/03/26 10:40:09;;;;;;;23.52;11.93;;;;;;;13.30;61.50;100678.31;20920165;28;20626;-71
2021/03/26 10:50:29;;;;;;;18.52;11.60;;;;;;;13.70;60.91;100661.75;20963894;28;20092;-70
2021/03/26 11:00:40;;;;;;;19.27;11.10;;;;;;;13.76;57.63;100650.00;20963360;28;20500;-71
2021/03/26 11:11:03;;;;;;;17.75;9.82;;;;;;;14.60;50.53;100634.00;20947811;28;20837;-71
2021/03/26 11:21:10;;;;;;;18.25;8.82;;;;;;;14.45;53.87;100620.06;20931731;28;20053;-71
2021/03/26 11:31:29;;;;;;;15.70;8.15;;;;;;;14.09;49.84;100610.13;20945341;28;20071;-72
2021/03/26 11:41:40;;;;;;;17.33;8.13;;;;;;;14.51;49.36;100581.00;20942290;28;20049;-71
2021/03/26 11:51:58;;;;;;;13.55;7.82;;;;;;;14.49;51.17;100567.06;20915487;28;20526;-71
2021/03/26 12:02:02;;;;;;;12.80;7.65;;;;;;;14.86;48.49;100548.75;20991339;28;20056;-72
2021/03/26 12:12:11;;;;;;;17.10;7.72;;;;;;;14.74;49.03;100539.03;20927104;28;20041;-71
2021/03/26 12:22:20;;;;;;;16.40;8.30;;;;;;;14.80;48.68;100528.06;20929648;28;20407;-70
2021/03/26 12:32:33;;;;;;;16.70;7.82;;;;;;;14.81;46.81;100509.53;20912331;28;20057;-71
2021/03/26 12:42:40;;;;;;;16.65;9.40;;;;;;;14.73;47.97;100496.03;20924353;28;20631;-71
2021/03/26 12:52:57;;;;;;;14.45;8.10;;;;;;;14.79;49.97;100481.59;20948234;28;20140;-70
2021/03/26 13:03:22;;;;;;;15.88;8.88;;;;;;;15.01;47.63;100467.75;20961098;28;20053;-71
2021/03/26 13:13:34;;;;;;;15.13;8.10;;;;;;;15.35;47.12;100464.34;20922355;28;20041;-71
2021/03/26 13:23:37;;;;;;;16.13;8.30;;;;;;;15.57;46.82;100448.66;20934314;28;20037;-71
2021/03/26 13:33:57;;;;;;;14.55;7.80;;;;;;;15.77;45.51;100420.78;20935964;28;20051;-70
2021/03/26 13:44:24;;;;;;;13.80;7.15;;;;;;;15.73;45.38;100408.78;20907151;28;20049;-70
2021/03/26 13:54:37;;;;;;;10.23;5.40;;;;;;;15.82;43.98;100386.97;20932799;28;20484;-70
2021/03/26 14:04:58;;;;;;;12.45;6.82;;;;;;;16.12;43.69;100368.78;20959341;28;20087;-72
2021/03/26 14:15:02;;;;;;;11.70;5.90;;;;;;;16.20;43.46;100366.34;20899845;28;20045;-71
2021/03/26 14:25:11;;;;;;;12.13;6.10;;;;;;;15.66;43.56;100365.34;20936185;28;20041;-71
2021/03/26 14:35:22;;;;;;;14.52;6.65;;;;;;;15.85;44.36;100341.03;20946482;28;20098;-72
2021/03/26 14:45:29;;;;;;;10.95;5.43;;;;;;;15.93;45.82;100336.84;20884339;28;20450;-71
2021/03/26 14:55:44;;;;;;;13.95;6.47;;;;;;;15.98;43.87;100324.13;20951184;28;20094;-71
2021/03/26 15:05:58;;;;;;;10.75;5.50;;;;;;;16.01;44.76;100308.03;20915788;28;20052;-71
2021/03/26 15:16:10;;;;;;;10.20;4.70;;;;;;;16.33;42.99;100294.94;20911301;28;20049;-72
2021/03/26 15:26:25;;;;;;;9.77;6.40;;;;;;;15.76;44.97;100295.91;20897427;28;20040;-71
2021/03/26 15:36:38;;;;;;;11.20;5.43;;;;;;;15.48;44.48;100284.94;20902514;28;20041;-72
2021/03/26 15:46:44;;;;;;;11.20;4.53;;;;;;;15.05;44.32;100288.16;20919670;28;20802;-72
2021/03/26 15:56:47;;;;;;;11.30;5.10;;;;;;;14.98;44.64;100271.13;20915589;28;20056;-72
2021/03/26 16:06:53;;;;;;;8.43;4.03;;;;;;;14.86;45.01;100258.84;20926337;28;20048;-72
2021/03/26 16:17:27;;;;;;;9.98;4.38;;;;;;;14.60;46.38;100252.84;20941408;28;20049;-70
2021/03/26 16:27:47;;;;;;;6.95;3.47;;;;;;;14.54;46.00;100254.16;20957757;28;20044;-71
2021/03/26 16:38:09;;;;;;;9.95;4.13;;;;;;;14.47;46.42;100242.41;20897323;28;20045;-72
2021/03/26 16:48:28;;;;;;;9.70;4.35;;;;;;;14.54;47.32;100235.72;20913054;28;20052;-71
2021/03/26 16:59:17;;;;;;;7.75;4.30;;;;;;;14.54;48.36;100227.81;20952026;28;20080;-72
2021/03/26 17:09:38;;;;;;;10.73;4.70;;;;;;;14.62;46.56;100224.63;20905278;28;20048;-70
2021/03/26 17:20:09;;;;;;;9.73;4.30;;;;;;;14.24;48.79;100213.34;20912188;28;20528;-70
2021/03/26 17:30:38;;;;;;;7.70;3.92;;;;;;;13.93;48.97;100215.56;20935778;28;20314;-72
2021/03/26 17:41:14;;;;;;;8.57;3.70;;;;;;;13.75;50.47;100216.03;20907638;28;20045;-71
2021/03/26 17:51:21;;;;;;;;;;;;;;;13.52;51.23;100218.47;20933202;28;20052;-72
2021/03/26 18:01:31;;;;;;;15.98;7.93;;;;;;;13.22;53.65;100215.31;20898666;28;19928;-72
2021/03/26 18:11:43;;;;;;;10.98;5.65;;;;;;;12.83;55.53;100224.91;20943678;28;20055;-72
2021/03/26 18:22:02;;;;;;;14.05;8.07;;;;;;;12.58;57.24;100227.47;20946467;28;20053;-71
2021/03/26 18:32:25;;;;;;;7.45;4.13;;;;;;;12.19;59.70;100237.91;20913203;28;20086;-71
2021/03/26 18:43:04;;;;;;;8.35;4.43;;;;;;;12.04;59.01;100236.25;20913584;28;20102;-71
2021/03/26 18:53:31;;;;;;;11.32;4.90;;;;;;;11.87;60.85;100250.41;20944342;28;20099;-72
2021/03/26 19:03:38;;;;;;;12.90;6.68;;;;;;;11.74;61.11;100258.16;20932156;28;20389;-71
2021/03/26 19:13:50;;;;;;;14.05;9.75;;;;;;;11.63;61.04;100257.94;20935052;28;20752;-72
2021/03/26 19:24:00;;;;;;;15.68;10.00;;;;;;;11.55;62.65;100258.41;20954094;28;20053;-72
2021/03/26 19:34:28;;;;;;;17.92;10.77;;;;;;;11.42;64.43;100256.63;20915222;28;20094;-72
2021/03/26 19:44:56;;;;;;;22.35;12.55;;;;;;;11.26;64.73;100255.84;20917916;28;20090;-72
2021/03/26 19:55:28;;;;;;;30.98;12.88;;;;;;;11.16;65.03;100247.69;20940797;28;20040;-72
2021/03/26 20:05:35;;;;;;;28.02;15.70;;;;;;;11.01;65.91;100249.44;20933124;28;20095;-71
2021/03/26 20:15:53;;;;;;;27.10;16.38;;;;;;;11.01;65.32;100254.69;20939068;28;20048;-71
2021/03/26 20:26:20;;;;;;;20.00;13.32;;;;;;;10.93;66.36;100251.66;20957343;28;20102;-72
2021/03/26 20:36:31;;;;;;;25.83;15.38;;;;;;;10.62;67.16;100267.41;20948300;28;20040;-72
2021/03/26 20:46:50;;;;;;;30.08;20.17;;;;;;;10.34;67.45;100268.13;20927107;28;20045;-72
2021/03/26 20:57:01;;;;;;;27.08;17.08;;;;;;;10.11;67.86;100268.50;20926228;28;20087;-70
2021/03/26 21:07:18;;;;;;;23.25;14.60;;;;;;;9.92;68.68;100273.88;20927209;28;20491;-72
2021/03/26 21:17:38;;;;;;;28.55;15.82;;;;;;;9.74;69.43;100274.88;20949563;28;20044;-72
2021/03/26 21:27:45;;;;;;;19.35;11.90;;;;;;;9.51;70.63;100280.44;20958782;28;20127;-73
2021/03/26 21:38:12;;;;;;;16.95;10.93;;;;;;;9.22;72.57;100280.19;20933558;28;20052;-73
2021/03/26 21:48:23;;;;;;;16.92;9.80;;;;;;;9.16;73.10;100277.88;20924412;28;20543;-72
2021/03/26 21:58:35;;;;;;;18.17;10.68;;;;;;;8.90;74.66;100280.91;20931770;28;20132;-73
2021/03/26 22:09:15;;;;;;;18.10;10.60;;;;;;;8.88;75.62;100269.72;20932644;28;20086;-72
2021/03/26 22:19:57;;;;;;;21.63;11.32;;;;;;;9.01;75.56;100244.69;20903452;28;20123;-72
2021/03/26 22:30:30;;;;;;;17.75;10.52;;;;;;;8.86;76.23;100248.06;20763486;28;20057;-72
2021/03/26 22:40:42;;;;;;;16.88;9.43;;;;;;;8.91;76.55;100225.19;20897271;28;20049;-72
2021/03/26 22:50:51;;;;;;;17.90;10.75;;;;;;;8.81;76.49;100222.22;20911629;28;20041;-72
2021/03/26 23:01:03;;;;;;;21.52;12.73;;;;;;;8.58;77.77;100225.94;20927012;28;20098;-72
2021/03/26 23:11:24;;;;;;;20.73;11.35;;;;;;;8.53;77.84;100233.13;20956988;22;20587;-71
2021/03/26 23:21:26;;;;;;;20.05;11.00;;;;;;;8.54;77.40;100224.41;21054181;28;20472;-71
2021/03/26 23:31:37;;;;;;;23.90;12.75;;;;;;;8.35;78.80;100205.34;21081190;28;20052;-72
2021/03/26 23:41:42;;;;;;;24.10;13.77;;;;;;;8.16;79.93;100218.41;21037661;28;20041;-72
2021/03/26 23:51:49;;;;;;;;;;;;;;;8.26;79.75;100216.19;20972031;28;20045;-73
